sensor_id;sensor_type;location;lat;lon;timestamp;P1;durP1;ratioP1;P2;durP2;ratioP2
74227;SDS011;62587;52.352;5.006;2022-11-12T00:01:03;6.45;;;5.68;;
74227;SDS011;62587;52.352;5.006;2022-11-12T00:03:28;5.63;;;5.13;;
74227;SDS011;62587;52.352;5.006;2022-11-12T00:05:54;6.28;;;5.68;;
74227;SDS011;62587;52.352;5.006;2022-11-12T00:08:19;6.15;;;5.35;;
74227;SDS011;62587;52.352;5.006;2022-11-12T00:10:45;6.38;;;5.78;;
74227;SDS011;62587;52.352;5.006;2022-11-12T00:13:10;6.97;;;5.28;;
74227;SDS011;62587;52.352;5.006;2022-11-12T00:15:36;6.32;;;5.57;;
74227;SDS011;62587;52.352;5.006;2022-11-12T00:18:02;7.00;;;6.13;;
74227;SDS011;62587;52.352;5.006;2022-11-12T00:20:28;6.63;;;5.70;;
74227;SDS011;62587;52.352;5.006;2022-11-12T00:22:53;5.70;;;5.10;;
74227;SDS011;62587;52.352;5.006;2022-11-12T00:25:19;6.70;;;6.10;;
74227;SDS011;62587;52.352;5.006;2022-11-12T00:27:44;6.70;;;5.63;;
74227;SDS011;62587;52.352;5.006;2022-11-12T00:30:10;5.80;;;5.20;;
74227;SDS011;62587;52.352;5.006;2022-11-12T00:32:36;5.68;;;5.18;;
74227;SDS011;62587;52.352;5.006;2022-11-12T00:35:02;6.35;;;5.38;;
74227;SDS011;62587;52.352;5.006;2022-11-12T00:37:28;6.30;;;5.70;;
74227;SDS011;62587;52.352;5.006;2022-11-12T00:39:53;6.20;;;5.60;;
74227;SDS011;62587;52.352;5.006;2022-11-12T00:42:19;5.40;;;4.90;;
74227;SDS011;62587;52.352;5.006;2022-11-12T00:44:44;6.00;;;5.40;;
74227;SDS011;62587;52.352;5.006;2022-11-12T00:47:10;5.93;;;5.32;;
74227;SDS011;62587;52.352;5.006;2022-11-12T00:49:35;5.72;;;5.22;;
74227;SDS011;62587;52.352;5.006;2022-11-12T00:52:00;8.03;;;5.77;;
74227;SDS011;62587;52.352;5.006;2022-11-12T00:54:26;5.53;;;5.03;;
74227;SDS011;62587;52.352;5.006;2022-11-12T00:56:51;6.10;;;5.50;;
74227;SDS011;62587;52.352;5.006;2022-11-12T00:59:16;5.75;;;5.25;;
74227;SDS011;62587;52.352;5.006;2022-11-12T01:01:42;5.47;;;4.97;;
74227;SDS011;62587;52.352;5.006;2022-11-12T01:04:07;6.43;;;5.80;;
74227;SDS011;62587;52.352;5.006;2022-11-12T01:06:33;5.60;;;4.90;;
74227;SDS011;62587;52.352;5.006;2022-11-12T01:08:59;5.85;;;5.25;;
74227;SDS011;62587;52.352;5.006;2022-11-12T01:11:26;5.93;;;5.30;;
74227;SDS011;62587;52.352;5.006;2022-11-12T01:13:56;5.60;;;5.00;;
74227;SDS011;62587;52.352;5.006;2022-11-12T01:16:25;5.10;;;4.60;;
74227;SDS011;62587;52.352;5.006;2022-11-12T01:18:56;5.88;;;5.28;;
74227;SDS011;62587;52.352;5.006;2022-11-12T01:21:24;5.85;;;5.18;;
74227;SDS011;62587;52.352;5.006;2022-11-12T01:23:50;5.40;;;4.90;;
74227;SDS011;62587;52.352;5.006;2022-11-12T01:26:17;5.33;;;4.83;;
74227;SDS011;62587;52.352;5.006;2022-11-12T01:28:44;5.30;;;4.80;;
74227;SDS011;62587;52.352;5.006;2022-11-12T01:31:22;5.40;;;4.68;;
74227;SDS011;62587;52.352;5.006;2022-11-12T01:33:49;5.07;;;4.50;;
74227;SDS011;62587;52.352;5.006;2022-11-12T01:36:18;5.47;;;4.97;;
74227;SDS011;62587;52.352;5.006;2022-11-12T01:38:45;5.18;;;4.65;;
74227;SDS011;62587;52.352;5.006;2022-11-12T01:41:12;5.60;;;5.00;;
74227;SDS011;62587;52.352;5.006;2022-11-12T01:43:40;5.68;;;5.07;;
74227;SDS011;62587;52.352;5.006;2022-11-12T01:46:09;5.57;;;5.07;;
74227;SDS011;62587;52.352;5.006;2022-11-12T01:48:43;5.85;;;5.35;;
74227;SDS011;62587;52.352;5.006;2022-11-12T01:51:13;4.80;;;4.40;;
74227;SDS011;62587;52.352;5.006;2022-11-12T01:53:40;5.70;;;5.00;;
74227;SDS011;62587;52.352;5.006;2022-11-12T01:56:10;5.53;;;4.97;;
74227;SDS011;62587;52.352;5.006;2022-11-12T01:58:37;5.30;;;4.80;;
74227;SDS011;62587;52.352;5.006;2022-11-12T02:01:04;5.63;;;5.03;;
74227;SDS011;62587;52.352;5.006;2022-11-12T02:03:30;6.00;;;5.50;;
74227;SDS011;62587;52.352;5.006;2022-11-12T02:05:58;6.25;;;5.10;;
74227;SDS011;62587;52.352;5.006;2022-11-12T02:08:27;5.10;;;4.70;;
74227;SDS011;62587;52.352;5.006;2022-11-12T02:10:54;5.75;;;5.05;;
74227;SDS011;62587;52.352;5.006;2022-11-12T02:13:20;5.85;;;4.82;;
74227;SDS011;62587;52.352;5.006;2022-11-12T02:16:05;5.30;;;4.80;;
74227;SDS011;62587;52.352;5.006;2022-11-12T02:18:33;5.60;;;5.03;;
74227;SDS011;62587;52.352;5.006;2022-11-12T02:21:02;6.57;;;5.13;;
74227;SDS011;62587;52.352;5.006;2022-11-12T02:23:28;5.30;;;4.80;;
74227;SDS011;62587;52.352;5.006;2022-11-12T02:25:57;6.00;;;5.40;;
74227;SDS011;62587;52.352;5.006;2022-11-12T02:28:23;5.72;;;5.20;;
74227;SDS011;62587;52.352;5.006;2022-11-12T02:30:49;5.85;;;5.10;;
74227;SDS011;62587;52.352;5.006;2022-11-12T02:33:15;5.50;;;5.00;;
74227;SDS011;62587;52.352;5.006;2022-11-12T02:35:40;5.78;;;5.13;;
74227;SDS011;62587;52.352;5.006;2022-11-12T02:38:06;5.82;;;5.20;;
74227;SDS011;62587;52.352;5.006;2022-11-12T02:40:32;5.75;;;5.15;;
74227;SDS011;62587;52.352;5.006;2022-11-12T02:42:58;6.50;;;5.47;;
74227;SDS011;62587;52.352;5.006;2022-11-12T02:45:24;7.15;;;6.00;;
74227;SDS011;62587;52.352;5.006;2022-11-12T02:47:50;5.82;;;5.22;;
74227;SDS011;62587;52.352;5.006;2022-11-12T02:50:15;5.93;;;5.28;;
74227;SDS011;62587;52.352;5.006;2022-11-12T02:52:41;6.30;;;5.35;;
74227;SDS011;62587;52.352;5.006;2022-11-12T02:55:07;6.10;;;5.50;;
74227;SDS011;62587;52.352;5.006;2022-11-12T02:57:33;5.95;;;5.03;;
74227;SDS011;62587;52.352;5.006;2022-11-12T02:59:59;6.60;;;5.80;;
74227;SDS011;62587;52.352;5.006;2022-11-12T03:02:24;6.73;;;6.13;;
74227;SDS011;62587;52.352;5.006;2022-11-12T03:04:50;6.25;;;5.55;;
74227;SDS011;62587;52.352;5.006;2022-11-12T03:07:15;6.72;;;6.03;;
74227;SDS011;62587;52.352;5.006;2022-11-12T03:09:41;6.78;;;6.18;;
74227;SDS011;62587;52.352;5.006;2022-11-12T03:12:06;6.10;;;5.50;;
74227;SDS011;62587;52.352;5.006;2022-11-12T03:14:31;6.47;;;5.57;;
74227;SDS011;62587;52.352;5.006;2022-11-12T03:16:57;6.28;;;5.68;;
74227;SDS011;62587;52.352;5.006;2022-11-12T03:19:22;6.40;;;5.77;;
74227;SDS011;62587;52.352;5.006;2022-11-12T03:21:47;6.65;;;5.95;;
74227;SDS011;62587;52.352;5.006;2022-11-12T03:24:13;6.05;;;5.43;;
74227;SDS011;62587;52.352;5.006;2022-11-12T03:26:38;6.97;;;6.28;;
74227;SDS011;62587;52.352;5.006;2022-11-12T03:29:03;7.30;;;6.40;;
74227;SDS011;62587;52.352;5.006;2022-11-12T03:31:29;7.38;;;6.68;;
74227;SDS011;62587;52.352;5.006;2022-11-12T03:33:54;7.53;;;6.82;;
74227;SDS011;62587;52.352;5.006;2022-11-12T03:36:19;7.38;;;6.68;;
74227;SDS011;62587;52.352;5.006;2022-11-12T03:38:45;7.67;;;6.90;;
74227;SDS011;62587;52.352;5.006;2022-11-12T03:41:10;7.78;;;6.95;;
74227;SDS011;62587;52.352;5.006;2022-11-12T03:43:35;7.60;;;6.82;;
74227;SDS011;62587;52.352;5.006;2022-11-12T03:46:01;6.60;;;5.90;;
74227;SDS011;62587;52.352;5.006;2022-11-12T03:48:26;7.18;;;6.47;;
74227;SDS011;62587;52.352;5.006;2022-11-12T03:50:55;8.45;;;7.60;;
74227;SDS011;62587;52.352;5.006;2022-11-12T03:53:24;8.60;;;7.70;;
74227;SDS011;62587;52.352;5.006;2022-11-12T03:55:50;8.00;;;7.20;;
74227;SDS011;62587;52.352;5.006;2022-11-12T03:58:15;7.80;;;7.00;;
74227;SDS011;62587;52.352;5.006;2022-11-12T04:00:41;7.82;;;7.03;;
74227;SDS011;62587;52.352;5.006;2022-11-12T04:03:06;7.97;;;7.18;;
74227;SDS011;62587;52.352;5.006;2022-11-12T04:05:31;8.37;;;7.03;;
74227;SDS011;62587;52.352;5.006;2022-11-12T04:08:17;8.60;;;7.70;;
74227;SDS011;62587;52.352;5.006;2022-11-12T04:11:07;8.93;;;8.05;;
74227;SDS011;62587;52.352;5.006;2022-11-12T04:13:36;8.65;;;7.78;;
74227;SDS011;62587;52.352;5.006;2022-11-12T04:16:07;8.80;;;7.90;;
74227;SDS011;62587;52.352;5.006;2022-11-12T04:18:53;9.05;;;8.10;;
74227;SDS011;62587;52.352;5.006;2022-11-12T04:21:46;8.05;;;6.97;;
74227;SDS011;62587;52.352;5.006;2022-11-12T04:24:25;9.15;;;8.25;;
74227;SDS011;62587;52.352;5.006;2022-11-12T04:29:41;8.55;;;7.65;;
74227;SDS011;62587;52.352;5.006;2022-11-12T04:32:26;8.75;;;7.82;;
74227;SDS011;62587;52.352;5.006;2022-11-12T04:34:52;9.57;;;8.57;;
74227;SDS011;62587;52.352;5.006;2022-11-12T04:37:19;8.98;;;7.65;;
74227;SDS011;62587;52.352;5.006;2022-11-12T04:39:45;9.77;;;8.77;;
74227;SDS011;62587;52.352;5.006;2022-11-12T04:42:10;9.20;;;8.20;;
74227;SDS011;62587;52.352;5.006;2022-11-12T04:44:54;9.63;;;8.40;;
74227;SDS011;62587;52.352;5.006;2022-11-12T04:47:23;9.68;;;8.68;;
74227;SDS011;62587;52.352;5.006;2022-11-12T04:49:48;9.65;;;8.60;;
74227;SDS011;62587;52.352;5.006;2022-11-12T04:52:14;10.23;;;8.47;;
74227;SDS011;62587;52.352;5.006;2022-11-12T04:54:40;9.93;;;8.75;;
74227;SDS011;62587;52.352;5.006;2022-11-12T04:57:05;9.57;;;8.60;;
74227;SDS011;62587;52.352;5.006;2022-11-12T04:59:31;11.10;;;9.75;;
74227;SDS011;62587;52.352;5.006;2022-11-12T05:01:56;10.23;;;8.97;;
74227;SDS011;62587;52.352;5.006;2022-11-12T05:04:21;10.77;;;9.68;;
74227;SDS011;62587;52.352;5.006;2022-11-12T05:06:47;10.13;;;9.13;;
74227;SDS011;62587;52.352;5.006;2022-11-12T05:14:06;9.70;;;8.67;;
74227;SDS011;62587;52.352;5.006;2022-11-12T05:16:31;9.83;;;8.63;;
74227;SDS011;62587;52.352;5.006;2022-11-12T05:18:56;9.43;;;8.27;;
74227;SDS011;62587;52.352;5.006;2022-11-12T05:21:22;9.95;;;8.95;;
74227;SDS011;62587;52.352;5.006;2022-11-12T05:24:06;10.73;;;9.60;;
74227;SDS011;62587;52.352;5.006;2022-11-12T05:26:31;9.70;;;8.65;;
74227;SDS011;62587;52.352;5.006;2022-11-12T05:28:57;10.33;;;9.23;;
74227;SDS011;62587;52.352;5.006;2022-11-12T05:31:22;9.53;;;8.07;;
74227;SDS011;62587;52.352;5.006;2022-11-12T05:33:47;10.82;;;9.27;;
74227;SDS011;62587;52.352;5.006;2022-11-12T05:36:12;11.33;;;10.13;;
74227;SDS011;62587;52.352;5.006;2022-11-12T05:38:38;10.20;;;9.20;;
74227;SDS011;62587;52.352;5.006;2022-11-12T05:41:03;10.23;;;8.73;;
74227;SDS011;62587;52.352;5.006;2022-11-12T05:43:29;10.75;;;9.65;;
74227;SDS011;62587;52.352;5.006;2022-11-12T05:45:54;9.98;;;8.98;;
74227;SDS011;62587;52.352;5.006;2022-11-12T05:48:20;10.02;;;9.00;;
74227;SDS011;62587;52.352;5.006;2022-11-12T05:50:48;10.65;;;9.20;;
74227;SDS011;62587;52.352;5.006;2022-11-12T05:53:14;9.80;;;8.52;;
74227;SDS011;62587;52.352;5.006;2022-11-12T05:55:39;10.70;;;8.53;;
74227;SDS011;62587;52.352;5.006;2022-11-12T05:58:05;10.57;;;9.10;;
74227;SDS011;62587;52.352;5.006;2022-11-12T06:00:31;9.77;;;8.77;;
74227;SDS011;62587;52.352;5.006;2022-11-12T06:03:03;10.30;;;9.20;;
74227;SDS011;62587;52.352;5.006;2022-11-12T06:05:29;9.90;;;8.32;;
74227;SDS011;62587;52.352;5.006;2022-11-12T06:07:55;10.27;;;9.13;;
74227;SDS011;62587;52.352;5.006;2022-11-12T06:10:20;10.23;;;9.17;;
74227;SDS011;62587;52.352;5.006;2022-11-12T06:12:46;10.70;;;9.60;;
74227;SDS011;62587;52.352;5.006;2022-11-12T06:15:11;11.07;;;9.27;;
74227;SDS011;62587;52.352;5.006;2022-11-12T06:17:36;10.30;;;8.90;;
74227;SDS011;62587;52.352;5.006;2022-11-12T06:20:02;10.95;;;9.85;;
74227;SDS011;62587;52.352;5.006;2022-11-12T06:22:27;9.95;;;8.95;;
74227;SDS011;62587;52.352;5.006;2022-11-12T06:24:53;9.63;;;8.60;;
74227;SDS011;62587;52.352;5.006;2022-11-12T06:27:18;10.03;;;9.03;;
74227;SDS011;62587;52.352;5.006;2022-11-12T06:29:43;10.07;;;8.80;;
74227;SDS011;62587;52.352;5.006;2022-11-12T06:32:09;10.30;;;8.77;;
74227;SDS011;62587;52.352;5.006;2022-11-12T06:34:35;11.05;;;9.25;;
74227;SDS011;62587;52.352;5.006;2022-11-12T06:37:00;10.37;;;9.27;;
74227;SDS011;62587;52.352;5.006;2022-11-12T06:39:25;11.33;;;9.40;;
74227;SDS011;62587;52.352;5.006;2022-11-12T06:41:51;10.80;;;9.70;;
74227;SDS011;62587;52.352;5.006;2022-11-12T06:44:16;10.18;;;9.07;;
74227;SDS011;62587;52.352;5.006;2022-11-12T06:46:41;10.48;;;9.23;;
74227;SDS011;62587;52.352;5.006;2022-11-12T06:49:07;11.23;;;8.40;;
74227;SDS011;62587;52.352;5.006;2022-11-12T06:51:33;9.73;;;8.52;;
74227;SDS011;62587;52.352;5.006;2022-11-12T06:53:58;10.35;;;9.20;;
74227;SDS011;62587;52.352;5.006;2022-11-12T06:56:23;10.10;;;9.00;;
74227;SDS011;62587;52.352;5.006;2022-11-12T06:58:49;10.60;;;8.90;;
74227;SDS011;62587;52.352;5.006;2022-11-12T07:01:15;11.38;;;9.10;;
74227;SDS011;62587;52.352;5.006;2022-11-12T07:03:41;10.52;;;9.23;;
74227;SDS011;62587;52.352;5.006;2022-11-12T07:06:12;10.85;;;9.18;;
74227;SDS011;62587;52.352;5.006;2022-11-12T07:08:39;10.73;;;9.50;;
74227;SDS011;62587;52.352;5.006;2022-11-12T07:11:06;11.18;;;9.70;;
74227;SDS011;62587;52.352;5.006;2022-11-12T07:13:32;11.23;;;9.85;;
74227;SDS011;62587;52.352;5.006;2022-11-12T07:15:59;11.82;;;9.73;;
74227;SDS011;62587;52.352;5.006;2022-11-12T07:18:25;10.20;;;8.57;;
74227;SDS011;62587;52.352;5.006;2022-11-12T07:20:56;10.60;;;9.40;;
74227;SDS011;62587;52.352;5.006;2022-11-12T07:23:25;10.63;;;9.52;;
74227;SDS011;62587;52.352;5.006;2022-11-12T07:26:07;11.75;;;9.48;;
74227;SDS011;62587;52.352;5.006;2022-11-12T07:31:04;9.80;;;8.77;;
74227;SDS011;62587;52.352;5.006;2022-11-12T07:33:32;11.18;;;8.77;;
74227;SDS011;62587;52.352;5.006;2022-11-12T07:38:30;10.30;;;9.15;;
74227;SDS011;62587;52.352;5.006;2022-11-12T07:40:57;11.95;;;9.63;;
74227;SDS011;62587;52.352;5.006;2022-11-12T07:43:28;10.02;;;8.35;;
74227;SDS011;62587;52.352;5.006;2022-11-12T07:46:01;10.07;;;8.93;;
74227;SDS011;62587;52.352;5.006;2022-11-12T07:48:28;10.38;;;9.02;;
74227;SDS011;62587;52.352;5.006;2022-11-12T07:53:30;10.82;;;8.93;;
74227;SDS011;62587;52.352;5.006;2022-11-12T07:55:57;10.55;;;9.35;;
74227;SDS011;62587;52.352;5.006;2022-11-12T07:58:24;10.13;;;9.07;;
74227;SDS011;62587;52.352;5.006;2022-11-12T08:00:50;10.25;;;8.73;;
74227;SDS011;62587;52.352;5.006;2022-11-12T08:03:16;10.07;;;9.00;;
74227;SDS011;62587;52.352;5.006;2022-11-12T08:05:42;9.70;;;8.02;;
74227;SDS011;62587;52.352;5.006;2022-11-12T08:08:07;10.32;;;8.82;;
74227;SDS011;62587;52.352;5.006;2022-11-12T08:10:32;10.38;;;8.85;;
74227;SDS011;62587;52.352;5.006;2022-11-12T08:12:58;10.27;;;8.37;;
74227;SDS011;62587;52.352;5.006;2022-11-12T08:15:23;10.40;;;8.90;;
74227;SDS011;62587;52.352;5.006;2022-11-12T08:17:48;10.02;;;8.63;;
74227;SDS011;62587;52.352;5.006;2022-11-12T08:20:14;9.88;;;8.13;;
74227;SDS011;62587;52.352;5.006;2022-11-12T08:22:39;9.15;;;8.15;;
74227;SDS011;62587;52.352;5.006;2022-11-12T08:25:05;9.82;;;8.52;;
74227;SDS011;62587;52.352;5.006;2022-11-12T08:27:32;10.63;;;8.90;;
74227;SDS011;62587;52.352;5.006;2022-11-12T08:29:57;9.48;;;8.00;;
74227;SDS011;62587;52.352;5.006;2022-11-12T08:32:23;9.65;;;8.65;;
74227;SDS011;62587;52.352;5.006;2022-11-12T08:34:48;10.02;;;9.00;;
74227;SDS011;62587;52.352;5.006;2022-11-12T08:37:14;10.38;;;8.40;;
74227;SDS011;62587;52.352;5.006;2022-11-12T08:39:39;10.63;;;9.05;;
74227;SDS011;62587;52.352;5.006;2022-11-12T08:42:04;9.95;;;8.75;;
74227;SDS011;62587;52.352;5.006;2022-11-12T08:44:30;9.57;;;7.83;;
74227;SDS011;62587;52.352;5.006;2022-11-12T08:46:55;10.03;;;8.13;;
74227;SDS011;62587;52.352;5.006;2022-11-12T08:49:20;8.90;;;7.77;;
74227;SDS011;62587;52.352;5.006;2022-11-12T08:51:46;9.77;;;8.18;;
74227;SDS011;62587;52.352;5.006;2022-11-12T08:54:11;9.20;;;7.57;;
74227;SDS011;62587;52.352;5.006;2022-11-12T08:56:37;8.90;;;7.97;;
74227;SDS011;62587;52.352;5.006;2022-11-12T08:59:03;9.55;;;8.55;;
74227;SDS011;62587;52.352;5.006;2022-11-12T09:01:29;9.38;;;7.40;;
74227;SDS011;62587;52.352;5.006;2022-11-12T09:03:54;10.00;;;8.27;;
74227;SDS011;62587;52.352;5.006;2022-11-12T09:06:19;8.87;;;7.97;;
74227;SDS011;62587;52.352;5.006;2022-11-12T09:08:45;9.55;;;8.32;;
74227;SDS011;62587;52.352;5.006;2022-11-12T09:11:10;8.60;;;7.70;;
74227;SDS011;62587;52.352;5.006;2022-11-12T09:13:35;8.57;;;7.67;;
74227;SDS011;62587;52.352;5.006;2022-11-12T09:16:02;10.00;;;8.02;;
74227;SDS011;62587;52.352;5.006;2022-11-12T09:18:29;8.50;;;7.22;;
74227;SDS011;62587;52.352;5.006;2022-11-12T09:21:05;8.95;;;8.00;;
74227;SDS011;62587;52.352;5.006;2022-11-12T09:23:33;8.82;;;7.93;;
74227;SDS011;62587;52.352;5.006;2022-11-12T09:25:59;8.50;;;7.03;;
74227;SDS011;62587;52.352;5.006;2022-11-12T09:28:25;10.38;;;8.35;;
74227;SDS011;62587;52.352;5.006;2022-11-12T09:30:50;9.50;;;7.95;;
74227;SDS011;62587;52.352;5.006;2022-11-12T09:33:18;8.18;;;7.25;;
74227;SDS011;62587;52.352;5.006;2022-11-12T09:35:45;10.90;;;8.07;;
74227;SDS011;62587;52.352;5.006;2022-11-12T09:38:11;8.65;;;7.60;;
74227;SDS011;62587;52.352;5.006;2022-11-12T09:40:42;8.45;;;7.45;;
74227;SDS011;62587;52.352;5.006;2022-11-12T09:43:31;7.80;;;6.30;;
74227;SDS011;62587;52.352;5.006;2022-11-12T09:46:05;8.30;;;7.47;;
74227;SDS011;62587;52.352;5.006;2022-11-12T09:48:39;8.88;;;7.82;;
74227;SDS011;62587;52.352;5.006;2022-11-12T09:51:15;8.85;;;7.95;;
74227;SDS011;62587;52.352;5.006;2022-11-12T09:53:58;8.15;;;7.32;;
74227;SDS011;62587;52.352;5.006;2022-11-12T09:56:28;8.20;;;7.40;;
74227;SDS011;62587;52.352;5.006;2022-11-12T09:58:54;8.02;;;7.22;;
74227;SDS011;62587;52.352;5.006;2022-11-12T10:09:45;8.80;;;7.63;;
74227;SDS011;62587;52.352;5.006;2022-11-12T10:17:50;8.63;;;6.97;;
74227;SDS011;62587;52.352;5.006;2022-11-12T10:20:31;8.23;;;7.43;;
74227;SDS011;62587;52.352;5.006;2022-11-12T10:25:33;7.90;;;7.10;;
74227;SDS011;62587;52.352;5.006;2022-11-12T10:28:00;7.80;;;7.00;;
74227;SDS011;62587;52.352;5.006;2022-11-12T10:30:40;8.30;;;7.45;;
74227;SDS011;62587;52.352;5.006;2022-11-12T10:33:09;8.25;;;7.35;;
74227;SDS011;62587;52.352;5.006;2022-11-12T10:35:37;8.00;;;7.20;;
74227;SDS011;62587;52.352;5.006;2022-11-12T10:38:08;8.07;;;7.28;;
74227;SDS011;62587;52.352;5.006;2022-11-12T10:40:39;8.50;;;7.50;;
74227;SDS011;62587;52.352;5.006;2022-11-12T10:43:19;7.47;;;6.70;;
74227;SDS011;62587;52.352;5.006;2022-11-12T10:45:47;8.07;;;7.18;;
74227;SDS011;62587;52.352;5.006;2022-11-12T10:48:20;7.40;;;6.57;;
74227;SDS011;62587;52.352;5.006;2022-11-12T10:50:52;8.50;;;7.30;;
74227;SDS011;62587;52.352;5.006;2022-11-12T10:53:32;8.25;;;7.32;;
74227;SDS011;62587;52.352;5.006;2022-11-12T10:56:00;7.60;;;6.68;;
74227;SDS011;62587;52.352;5.006;2022-11-12T10:58:27;7.25;;;6.55;;
74227;SDS011;62587;52.352;5.006;2022-11-12T11:00:53;6.83;;;6.13;;
74227;SDS011;62587;52.352;5.006;2022-11-12T11:03:25;7.93;;;6.97;;
74227;SDS011;62587;52.352;5.006;2022-11-12T11:06:06;8.07;;;6.40;;
74227;SDS011;62587;52.352;5.006;2022-11-12T11:08:46;7.28;;;6.45;;
74227;SDS011;62587;52.352;5.006;2022-11-12T11:11:16;7.03;;;6.32;;
74227;SDS011;62587;52.352;5.006;2022-11-12T11:13:44;6.95;;;6.25;;
74227;SDS011;62587;52.352;5.006;2022-11-12T11:16:12;7.18;;;6.47;;
74227;SDS011;62587;52.352;5.006;2022-11-12T11:18:40;7.53;;;6.72;;
74227;SDS011;62587;52.352;5.006;2022-11-12T11:26:52;7.20;;;6.43;;
74227;SDS011;62587;52.352;5.006;2022-11-12T11:32:17;6.93;;;6.18;;
74227;SDS011;62587;52.352;5.006;2022-11-12T11:40:38;6.78;;;6.10;;
74227;SDS011;62587;52.352;5.006;2022-11-12T11:46:15;6.80;;;6.10;;
74227;SDS011;62587;52.352;5.006;2022-11-12T11:57:18;5.95;;;5.35;;
74227;SDS011;62587;52.352;5.006;2022-11-12T12:08:16;6.22;;;5.63;;
74227;SDS011;62587;52.352;5.006;2022-11-12T12:21:30;5.53;;;5.03;;
74227;SDS011;62587;52.352;5.006;2022-11-12T12:26:41;5.20;;;4.70;;
74227;SDS011;62587;52.352;5.006;2022-11-12T12:29:34;5.40;;;4.90;;
74227;SDS011;62587;52.352;5.006;2022-11-12T12:34:43;5.95;;;4.93;;
74227;SDS011;62587;52.352;5.006;2022-11-12T12:42:44;6.72;;;5.40;;
74227;SDS011;62587;52.352;5.006;2022-11-12T12:48:11;5.28;;;4.70;;
74227;SDS011;62587;52.352;5.006;2022-11-12T12:50:41;5.28;;;4.78;;
74227;SDS011;62587;52.352;5.006;2022-11-12T12:58:04;5.10;;;4.70;;
74227;SDS011;62587;52.352;5.006;2022-11-12T13:00:41;5.85;;;4.38;;
74227;SDS011;62587;52.352;5.006;2022-11-12T13:03:12;5.25;;;4.75;;
74227;SDS011;62587;52.352;5.006;2022-11-12T13:06:07;5.40;;;4.90;;
74227;SDS011;62587;52.352;5.006;2022-11-12T13:16:55;4.95;;;4.45;;
74227;SDS011;62587;52.352;5.006;2022-11-12T13:19:26;5.75;;;4.60;;
74227;SDS011;62587;52.352;5.006;2022-11-12T13:30:09;4.57;;;4.00;;
74227;SDS011;62587;52.352;5.006;2022-11-12T13:32:54;4.90;;;4.40;;
74227;SDS011;62587;52.352;5.006;2022-11-12T13:35:54;4.90;;;4.40;;
74227;SDS011;62587;52.352;5.006;2022-11-12T13:38:12;4.93;;;4.40;;
74227;SDS011;62587;52.352;5.006;2022-11-12T13:43:17;4.97;;;4.47;;
74227;SDS011;62587;52.352;5.006;2022-11-12T13:48:24;4.45;;;4.05;;
74227;SDS011;62587;52.352;5.006;2022-11-12T13:50:57;4.53;;;4.05;;
74227;SDS011;62587;52.352;5.006;2022-11-12T13:53:28;4.22;;;3.83;;
74227;SDS011;62587;52.352;5.006;2022-11-12T13:55:55;4.38;;;3.97;;
74227;SDS011;62587;52.352;5.006;2022-11-12T13:58:25;3.70;;;3.40;;
74227;SDS011;62587;52.352;5.006;2022-11-12T14:01:01;3.80;;;3.40;;
74227;SDS011;62587;52.352;5.006;2022-11-12T14:03:34;4.00;;;3.60;;
74227;SDS011;62587;52.352;5.006;2022-11-12T14:06:21;5.70;;;4.20;;
74227;SDS011;62587;52.352;5.006;2022-11-12T14:22:43;5.35;;;3.70;;
74227;SDS011;62587;52.352;5.006;2022-11-12T14:25:14;4.88;;;3.90;;
74227;SDS011;62587;52.352;5.006;2022-11-12T14:27:42;4.28;;;3.70;;
74227;SDS011;62587;52.352;5.006;2022-11-12T14:32:43;4.40;;;4.00;;
74227;SDS011;62587;52.352;5.006;2022-11-12T14:35:43;3.75;;;3.28;;
74227;SDS011;62587;52.352;5.006;2022-11-12T14:40:30;4.28;;;3.88;;
74227;SDS011;62587;52.352;5.006;2022-11-12T14:42:59;4.25;;;3.85;;
74227;SDS011;62587;52.352;5.006;2022-11-12T14:45:25;4.95;;;4.45;;
74227;SDS011;62587;52.352;5.006;2022-11-12T14:47:51;4.45;;;4.05;;
74227;SDS011;62587;52.352;5.006;2022-11-12T14:52:44;4.20;;;3.57;;
74227;SDS011;62587;52.352;5.006;2022-11-12T14:55:14;4.15;;;3.75;;
74227;SDS011;62587;52.352;5.006;2022-11-12T14:57:45;3.95;;;3.55;;
74227;SDS011;62587;52.352;5.006;2022-11-12T15:02:43;4.30;;;3.60;;
74227;SDS011;62587;52.352;5.006;2022-11-12T15:05:11;4.05;;;3.65;;
74227;SDS011;62587;52.352;5.006;2022-11-12T15:10:33;4.35;;;3.95;;
74227;SDS011;62587;52.352;5.006;2022-11-12T15:15:49;4.63;;;4.10;;
74227;SDS011;62587;52.352;5.006;2022-11-12T15:18:18;4.03;;;3.63;;
74227;SDS011;62587;52.352;5.006;2022-11-12T15:21:04;3.97;;;3.58;;
74227;SDS011;62587;52.352;5.006;2022-11-12T15:23:46;4.07;;;3.67;;
74227;SDS011;62587;52.352;5.006;2022-11-12T15:26:14;4.10;;;3.70;;
74227;SDS011;62587;52.352;5.006;2022-11-12T15:28:58;3.90;;;3.50;;
74227;SDS011;62587;52.352;5.006;2022-11-12T15:31:40;4.40;;;4.00;;
74227;SDS011;62587;52.352;5.006;2022-11-12T15:34:31;4.43;;;4.03;;
74227;SDS011;62587;52.352;5.006;2022-11-12T15:36:57;4.00;;;3.60;;
74227;SDS011;62587;52.352;5.006;2022-11-12T15:39:27;4.20;;;3.80;;
74227;SDS011;62587;52.352;5.006;2022-11-12T15:42:00;4.43;;;3.92;;
74227;SDS011;62587;52.352;5.006;2022-11-12T15:44:31;4.40;;;4.00;;
74227;SDS011;62587;52.352;5.006;2022-11-12T15:46:59;4.05;;;3.65;;
74227;SDS011;62587;52.352;5.006;2022-11-12T15:49:25;4.40;;;4.00;;
74227;SDS011;62587;52.352;5.006;2022-11-12T15:51:50;5.15;;;4.65;;
74227;SDS011;62587;52.352;5.006;2022-11-12T15:54:16;4.75;;;4.25;;
74227;SDS011;62587;52.352;5.006;2022-11-12T15:56:41;3.63;;;3.27;;
74227;SDS011;62587;52.352;5.006;2022-11-12T15:59:08;4.53;;;4.13;;
74227;SDS011;62587;52.352;5.006;2022-11-12T16:01:38;4.30;;;3.90;;
74227;SDS011;62587;52.352;5.006;2022-11-12T16:04:03;4.72;;;3.63;;
74227;SDS011;62587;52.352;5.006;2022-11-12T16:06:29;4.35;;;3.95;;
74227;SDS011;62587;52.352;5.006;2022-11-12T16:08:54;4.88;;;4.38;;
74227;SDS011;62587;52.352;5.006;2022-11-12T16:11:19;4.23;;;3.83;;
74227;SDS011;62587;52.352;5.006;2022-11-12T16:14:01;4.40;;;4.00;;
74227;SDS011;62587;52.352;5.006;2022-11-12T16:16:27;3.92;;;3.63;;
74227;SDS011;62587;52.352;5.006;2022-11-12T16:18:53;4.88;;;3.80;;
74227;SDS011;62587;52.352;5.006;2022-11-12T16:21:18;4.40;;;4.00;;
74227;SDS011;62587;52.352;5.006;2022-11-12T16:23:43;4.23;;;3.80;;
74227;SDS011;62587;52.352;5.006;2022-11-12T16:26:10;4.47;;;4.00;;
74227;SDS011;62587;52.352;5.006;2022-11-12T16:28:39;4.95;;;3.90;;
74227;SDS011;62587;52.352;5.006;2022-11-12T16:31:05;3.65;;;3.35;;
74227;SDS011;62587;52.352;5.006;2022-11-12T16:33:30;4.70;;;3.85;;
74227;SDS011;62587;52.352;5.006;2022-11-12T16:35:56;4.35;;;3.95;;
74227;SDS011;62587;52.352;5.006;2022-11-12T16:38:21;4.60;;;4.03;;
74227;SDS011;62587;52.352;5.006;2022-11-12T16:40:49;4.82;;;4.43;;
74227;SDS011;62587;52.352;5.006;2022-11-12T16:43:15;4.40;;;4.00;;
74227;SDS011;62587;52.352;5.006;2022-11-12T16:45:40;4.80;;;4.30;;
74227;SDS011;62587;52.352;5.006;2022-11-12T16:48:14;5.20;;;3.80;;
74227;SDS011;62587;52.352;5.006;2022-11-12T16:50:42;4.72;;;4.25;;
74227;SDS011;62587;52.352;5.006;2022-11-12T16:53:08;4.55;;;4.15;;
74227;SDS011;62587;52.352;5.006;2022-11-12T16:55:33;5.35;;;4.85;;
74227;SDS011;62587;52.352;5.006;2022-11-12T16:57:59;4.13;;;3.70;;
74227;SDS011;62587;52.352;5.006;2022-11-12T17:00:24;4.75;;;4.35;;
74227;SDS011;62587;52.352;5.006;2022-11-12T17:02:50;4.35;;;3.95;;
74227;SDS011;62587;52.352;5.006;2022-11-12T17:05:16;4.38;;;3.97;;
74227;SDS011;62587;52.352;5.006;2022-11-12T17:07:47;5.07;;;4.60;;
74227;SDS011;62587;52.352;5.006;2022-11-12T17:10:13;4.78;;;4.38;;
74227;SDS011;62587;52.352;5.006;2022-11-12T17:12:39;3.60;;;3.30;;
74227;SDS011;62587;52.352;5.006;2022-11-12T17:15:05;4.25;;;3.90;;
74227;SDS011;62587;52.352;5.006;2022-11-12T17:17:30;4.90;;;4.28;;
74227;SDS011;62587;52.352;5.006;2022-11-12T17:19:56;4.35;;;3.95;;